Time;durP1;ratioP1;P1;durP2;ratioP2;P2;SDS_P1;SDS_P2;PMS_P1;PMS_P2;Temp;Humidity;BMP_temperature;BMP_pressure;BME280_temperature;BME280_humidity;BME280_pressure;Samples;Min_cycle;Max_cycle;Signal;HPM_P1;HPM_P2
2022/11/09 00:00:37;;;;;;;30.85;17.15;;;12.50;93.00;;;;;;5054270;28;20063;-66
2022/11/09 00:03:03;;;;;;;24.83;15.20;;;12.60;93.00;;;;;;5055355;28;20477;-66
2022/11/09 00:05:28;;;;;;;25.05;16.13;;;12.60;93.10;;;;;;5055194;28;20122;-66
2022/11/09 00:07:54;;;;;;;21.52;14.98;;;12.60;93.30;;;;;;5054967;28;20041;-66
2022/11/09 00:10:20;;;;;;;23.70;16.13;;;12.60;93.50;;;;;;5055032;28;20037;-66
2022/11/09 00:12:45;;;;;;;23.00;17.35;;;12.60;93.40;;;;;;5055010;28;20037;-66
2022/11/09 00:15:11;;;;;;;21.67;15.63;;;12.60;93.50;;;;;;5055262;28;20044;-66
2022/11/09 00:17:37;;;;;;;26.55;16.55;;;12.60;93.50;;;;;;5054550;28;20126;-66
2022/11/09 00:20:03;;;;;;;25.98;16.42;;;12.60;93.40;;;;;;5054575;28;20045;-68
2022/11/09 00:22:28;;;;;;;24.35;16.02;;;12.60;93.30;;;;;;5054756;28;20064;-66
2022/11/09 00:24:54;;;;;;;23.00;16.08;;;12.60;93.50;;;;;;5054325;28;20118;-66
2022/11/09 00:27:20;;;;;;;24.35;15.52;;;12.60;93.50;;;;;;5054544;28;20048;-66
2022/11/09 00:29:45;;;;;;;24.65;16.17;;;12.60;93.40;;;;;;5054608;28;20033;-65
2022/11/09 00:32:11;;;;;;;23.80;15.82;;;12.70;93.40;;;;;;5054498;28;20503;-66
2022/11/09 00:34:37;;;;;;;24.88;16.02;;;12.70;93.20;;;;;;5054895;28;20485;-66
2022/11/09 00:37:02;;;;;;;26.88;15.18;;;12.70;93.20;;;;;;5054770;28;20036;-66
2022/11/09 00:39:28;;;;;;;22.52;14.73;;;12.70;93.10;;;;;;5054717;28;20035;-66
2022/11/09 00:41:54;;;;;;;21.65;14.75;;;12.70;93.20;;;;;;5054507;28;20029;-66
2022/11/09 00:44:20;;;;;;;23.08;14.90;;;12.70;93.20;;;;;;5054541;28;20083;-67
2022/11/09 00:46:45;;;;;;;21.25;15.20;;;12.70;93.10;;;;;;5054816;28;20069;-66
2022/11/09 00:49:11;;;;;;;19.38;14.10;;;12.70;93.00;;;;;;5054760;28;20036;-66
2022/11/09 00:54:58;;;;;;;23.55;13.98;;;12.80;93.30;;;;;;5054393;28;20495;-66
2022/11/09 00:57:24;;;;;;;23.13;14.77;;;12.80;92.90;;;;;;5054004;28;20041;-66
2022/11/09 00:59:50;;;;;;;23.98;14.23;;;12.80;92.80;;;;;;5062252;28;20029;-67
2022/11/09 01:02:16;;;;;;;26.48;14.55;;;12.80;92.90;;;;;;5073787;28;20046;-67
2022/11/09 01:04:42;;;;;;;23.65;13.98;;;12.80;92.90;;;;;;5073750;28;20392;-66
2022/11/09 01:07:07;;;;;;;28.55;15.20;;;12.80;92.90;;;;;;5073818;28;20080;-66
2022/11/09 01:09:33;;;;;;;22.52;14.43;;;12.80;92.90;;;;;;5073816;28;20400;-66
2022/11/09 01:11:59;;;;;;;23.00;14.98;;;12.80;92.80;;;;;;5073776;28;20043;-66
2022/11/09 01:14:24;;;;;;;20.65;14.43;;;12.80;92.80;;;;;;5073854;28;20046;-66
2022/11/09 07:45:48;;;;;;;25.90;14.40;;;13.30;94.20;;;;;;5097398;28;20560;-80
2022/11/09 07:48:14;;;;;;;19.80;13.52;;;13.30;94.20;;;;;;5114145;28;20052;-67
2022/11/09 07:50:40;;;;;;;27.33;15.10;;;13.30;94.10;;;;;;5114990;28;20050;-67
2022/11/09 07:53:07;;;;;;;30.25;14.68;;;13.30;94.10;;;;;;5116045;28;20570;-67
2022/11/09 07:55:34;;;;;;;24.38;15.52;;;13.40;94.30;;;;;;5114163;28;20032;-78
2022/11/09 07:58:02;;;;;;;29.60;15.40;;;13.30;94.20;;;;;;5114845;28;20027;-68
2022/11/09 08:00:30;;;;;;;26.83;15.48;;;13.40;94.10;;;;;;5115047;28;20423;-67
2022/11/09 08:02:56;;;;;;;23.13;15.05;;;13.40;94.10;;;;;;5115317;28;20387;-67
2022/11/09 08:05:22;;;;;;;25.55;16.20;;;13.40;94.00;;;;;;5114662;28;20027;-69
2022/11/09 08:07:52;;;;;;;25.83;15.40;;;13.40;93.80;;;;;;5114572;28;20449;-67
2022/11/09 08:10:18;;;;;;;30.50;15.88;;;13.40;93.70;;;;;;5117366;27;20031;-67
2022/11/09 08:12:44;;;;;;;27.58;15.80;;;13.40;93.50;;;;;;5118634;27;20036;-68
2022/11/09 08:15:10;;;;;;;26.02;15.68;;;13.40;93.40;;;;;;5115173;28;20039;-66
2022/11/09 08:17:35;;;;;;;31.58;16.27;;;13.50;93.40;;;;;;5115558;28;20078;-66
2022/11/09 08:20:01;;;;;;;25.25;16.10;;;13.50;93.30;;;;;;5115392;28;20055;-67
2022/11/09 08:22:27;;;;;;;26.20;15.63;;;13.50;93.30;;;;;;5115266;28;20065;-78
2022/11/09 08:24:53;;;;;;;24.88;14.65;;;13.50;93.20;;;;;;5115218;28;20475;-66
2022/11/09 08:27:18;;;;;;;27.23;15.93;;;13.50;93.30;;;;;;5115209;28;20035;-67
2022/11/09 08:29:44;;;;;;;24.13;15.68;;;13.50;93.20;;;;;;5111135;28;20524;-77
2022/11/09 08:32:10;;;;;;;25.33;15.57;;;13.60;93.20;;;;;;5123664;27;20035;-68
2022/11/09 08:34:35;;;;;;;28.73;15.57;;;13.60;93.20;;;;;;5123194;27;20073;-67
2022/11/09 08:37:02;;;;;;;29.60;15.27;;;13.60;93.10;;;;;;5128002;27;20397;-65
2022/11/09 08:39:27;;;;;;;21.98;14.25;;;13.60;93.00;;;;;;5135571;27;20118;-64
2022/11/09 08:41:53;;;;;;;23.80;15.55;;;13.60;92.90;;;;;;5135476;27;20106;-67
2022/11/09 08:44:19;;;;;;;25.88;15.48;;;13.60;92.90;;;;;;5135481;27;20089;-67
2022/11/09 08:46:44;;;;;;;27.60;15.48;;;13.60;92.80;;;;;;5135343;27;20042;-67
2022/11/09 08:49:10;;;;;;;31.00;15.65;;;13.70;92.90;;;;;;5135518;27;20498;-67
2022/11/09 08:51:36;;;;;;;26.33;17.20;;;13.70;92.90;;;;;;5135323;27;20027;-67
2022/11/09 08:54:01;;;;;;;32.47;17.42;;;13.70;93.10;;;;;;5135397;27;20031;-67
2022/11/09 08:56:27;;;;;;;28.98;16.02;;;13.70;93.10;;;;;;5135236;27;20071;-67
2022/11/09 08:58:53;;;;;;;23.48;16.77;;;13.70;93.10;;;;;;5134872;27;20039;-67
2022/11/09 09:01:18;;;;;;;26.70;16.77;;;13.70;93.10;;;;;;5134780;27;20482;-67
2022/11/09 09:03:45;;;;;;;29.30;17.08;;;13.70;93.10;;;;;;5134538;27;20031;-67
2022/11/09 09:06:11;;;;;;;23.52;16.67;;;13.70;93.10;;;;;;5134358;27;20497;-67
2022/11/09 09:08:36;;;;;;;26.08;16.95;;;13.70;93.10;;;;;;5134232;27;20070;-67
2022/11/09 09:11:03;;;;;;;33.95;17.70;;;13.80;93.20;;;;;;5134853;27;20035;-66
2022/11/09 09:13:30;;;;;;;48.72;21.20;;;13.80;93.20;;;;;;5134634;27;20197;-67
2022/11/09 09:15:57;;;;;;;34.85;22.00;;;13.80;93.20;;;;;;5135443;27;20417;-67
2022/11/09 09:18:23;;;;;;;36.50;22.40;;;13.80;93.30;;;;;;5134941;27;20035;-67
2022/11/09 09:20:48;;;;;;;29.25;19.13;;;13.80;93.40;;;;;;5134765;27;20035;-82
2022/11/09 09:23:15;;;;;;;27.55;18.17;;;13.80;93.50;;;;;;5134599;27;20118;-68
2022/11/09 09:25:42;;;;;;;30.65;20.10;;;13.80;93.50;;;;;;5134772;27;20110;-68
2022/11/09 09:28:08;;;;;;;37.67;22.23;;;13.90;93.60;;;;;;5134279;27;20112;-74
2022/11/09 09:30:34;;;;;;;33.45;20.90;;;13.90;93.60;;;;;;5134410;27;20433;-67
2022/11/09 09:33:00;;;;;;;33.05;19.58;;;13.90;93.70;;;;;;5131696;27;20420;-68
2022/11/09 09:35:26;;;;;;;34.17;22.35;;;13.90;93.70;;;;;;5131686;27;20052;-67
2022/11/09 09:37:52;;;;;;;30.63;21.75;;;13.90;93.80;;;;;;5132098;27;20440;-66
2022/11/09 09:40:32;;;;;;;34.47;20.35;;;14.00;93.90;;;;;;5134037;27;20037;-67
2022/11/09 09:42:58;;;;;;;32.83;21.65;;;14.00;93.80;;;;;;5134625;27;20501;-83
2022/11/09 09:45:29;;;;;;;34.20;21.10;;;14.00;93.80;;;;;;5133504;27;20043;-67
2022/11/09 09:48:13;;;;;;;44.58;22.05;;;14.00;93.70;;;;;;5134096;27;20047;-67
2022/11/09 09:51:09;;;;;;;39.70;20.05;;;14.10;93.80;;;;;;5133919;27;20042;-67
2022/11/09 09:53:44;;;;;;;35.35;19.85;;;14.10;93.80;;;;;;5132915;27;20041;-67
2022/11/09 09:56:20;;;;;;;33.33;21.48;;;14.10;94.00;;;;;;5134141;27;20390;-67
2022/11/09 09:59:10;;;;;;;38.38;20.75;;;14.10;94.00;;;;;;5134056;27;20039;-67
2022/11/09 10:01:38;;;;;;;42.75;23.58;;;14.10;94.00;;;;;;5133498;27;20031;-66
2022/11/09 10:04:27;;;;;;;38.13;23.52;;;14.10;93.90;;;;;;5133889;27;20031;-67
2022/11/09 10:07:22;;;;;;;40.05;25.20;;;14.20;94.00;;;;;;5113903;27;20047;-67
2022/11/09 10:10:26;;;;;;;44.40;24.02;;;14.20;94.00;;;;;;5133907;27;20065;-66
2022/11/09 10:13:18;;;;;;;34.30;22.65;;;14.20;94.00;;;;;;5133881;27;20038;-67
2022/11/09 10:16:05;;;;;;;42.40;24.98;;;14.20;94.00;;;;;;5134227;27;20440;-67
2022/11/09 10:18:33;;;;;;;36.63;23.15;;;14.20;94.00;;;;;;5133797;27;20053;-67
2022/11/09 10:21:42;;;;;;;40.92;21.40;;;14.20;94.00;;;;;;5133994;27;20027;-66
2022/11/09 10:24:43;;;;;;;43.08;27.17;;;14.30;94.10;;;;;;5118828;28;20046;-67
2022/11/09 10:27:36;;;;;;;36.95;22.77;;;14.30;94.10;;;;;;5096627;28;20031;-67
2022/11/09 10:30:12;;;;;;;32.63;20.80;;;14.30;94.10;;;;;;5113551;28;20035;-77
2022/11/09 10:32:38;;;;;;;35.50;19.83;;;14.30;94.10;;;;;;5113381;28;20036;-67
2022/11/09 10:35:21;;;;;;;26.33;17.23;;;14.40;94.20;;;;;;5113197;28;20051;-65
2022/11/09 10:37:49;;;;;;;26.80;17.35;;;14.30;94.30;;;;;;5113082;28;20035;-67
2022/11/09 10:40:21;;;;;;;23.45;17.45;;;14.40;94.20;;;;;;5113103;28;20035;-67
2022/11/09 10:42:49;;;;;;;;;;;14.40;94.20;;;;;;5113898;28;20114;-67
2022/11/09 10:45:39;;;;;;;28.90;18.15;;;14.40;94.10;;;;;;5112851;28;19916;-67
2022/11/09 10:48:06;;;;;;;30.98;20.63;;;14.40;94.00;;;;;;5112735;28;20083;-67
2022/11/09 10:50:39;;;;;;;29.90;20.05;;;14.40;94.00;;;;;;5113328;28;20450;-67
2022/11/09 10:53:34;;;;;;;29.42;17.95;;;14.40;94.10;;;;;;5113162;28;20081;-67
2022/11/09 10:55:59;;;;;;;29.17;18.08;;;14.40;94.20;;;;;;5095729;28;20387;-67
2022/11/09 10:58:28;;;;;;;38.20;19.95;;;14.40;94.10;;;;;;5112545;28;20036;-67
2022/11/09 11:01:18;;;;;;;34.88;19.25;;;14.40;94.10;;;;;;5115004;28;20514;-67
2022/11/09 11:03:46;;;;;;;37.50;22.92;;;14.40;94.20;;;;;;5117018;28;20031;-67
2022/11/09 11:06:19;;;;;;;30.92;22.20;;;14.40;94.30;;;;;;5116860;28;20032;-67
2022/11/09 11:08:46;;;;;;;27.38;19.80;;;14.40;94.20;;;;;;5116547;28;20126;-68
2022/11/09 11:11:24;;;;;;;30.98;20.80;;;14.40;94.10;;;;;;5116739;28;20039;-66
2022/11/09 11:14:05;;;;;;;31.00;20.45;;;14.50;94.10;;;;;;5116937;28;20067;-83
2022/11/09 11:16:35;;;;;;;28.45;19.08;;;14.50;94.20;;;;;;5116491;28;20036;-84
2022/11/09 11:19:02;;;;;;;34.15;19.13;;;14.50;94.20;;;;;;5116689;28;20043;-67
2022/11/09 11:21:28;;;;;;;35.40;21.80;;;14.50;94.20;;;;;;5116648;28;20036;-90
2022/11/09 11:24:11;;;;;;;39.63;21.73;;;14.50;94.10;;;;;;5116846;28;20051;-67
2022/11/09 11:26:54;;;;;;;29.65;20.40;;;14.60;94.20;;;;;;5117061;28;20032;-68
2022/11/09 11:29:50;;;;;;;34.17;22.05;;;14.60;94.30;;;;;;5116669;28;20050;-67
2022/11/09 11:32:18;;;;;;;29.83;20.33;;;14.60;94.30;;;;;;5116295;28;20032;-67
2022/11/09 11:34:44;;;;;;;36.10;19.80;;;14.60;94.20;;;;;;5116665;28;20036;-67
2022/11/09 11:37:34;;;;;;;31.52;21.38;;;14.70;94.20;;;;;;5116004;28;20059;-67
2022/11/09 11:40:14;;;;;;;32.25;21.83;;;14.60;94.30;;;;;;5116140;28;20034;-83
2022/11/09 11:43:18;;;;;;;32.85;21.70;;;14.70;94.40;;;;;;5116176;28;20114;-74
2022/11/09 11:46:12;;;;;;;36.58;21.48;;;14.70;94.40;;;;;;5115732;28;20040;-77
2022/11/09 11:48:53;;;;;;;31.65;21.50;;;14.70;94.50;;;;;;5105589;27;20091;-67
2022/11/09 11:51:40;;;;;;;33.75;20.65;;;14.70;94.60;;;;;;5136761;27;20031;-66
2022/11/09 11:54:42;;;;;;;30.30;21.38;;;14.70;94.60;;;;;;5136871;27;20065;-66
2022/11/09 11:57:25;;;;;;;30.88;20.77;;;14.80;94.60;;;;;;5118900;27;20042;-66
2022/11/09 12:00:21;;;;;;;30.08;20.17;;;14.80;94.50;;;;;;5136507;27;20037;-67
2022/11/09 12:03:24;;;;;;;30.38;20.13;;;14.80;94.60;;;;;;5117987;27;20036;-66
2022/11/09 12:05:58;;;;;;;36.47;20.33;;;14.80;94.60;;;;;;5115266;28;20039;-67
2022/11/09 12:08:50;;;;;;;39.15;21.45;;;14.80;94.60;;;;;;5115865;28;20090;-67
2022/11/09 12:11:34;;;;;;;36.67;22.85;;;14.90;94.60;;;;;;5115336;28;20035;-68
2022/11/09 12:14:24;;;;;;;34.05;20.98;;;14.80;94.60;;;;;;5115118;28;20111;-83
2022/11/09 12:17:23;;;;;;;31.23;18.55;;;14.90;94.80;;;;;;5115513;28;20118;-67
2022/11/09 12:20:26;;;;;;;34.28;19.13;;;14.90;94.80;;;;;;5115488;28;20106;-66
2022/11/09 12:23:29;;;;;;;30.80;19.75;;;14.90;94.80;;;;;;5120282;27;20085;-66
2022/11/09 12:26:15;;;;;;;32.33;19.20;;;14.90;94.70;;;;;;5094187;28;20036;-66
2022/11/09 12:29:09;;;;;;;25.70;18.35;;;14.90;94.80;;;;;;5095030;28;20115;-66
2022/11/09 12:31:53;;;;;;;30.77;19.55;;;14.90;94.80;;;;;;5095037;28;20032;-67
2022/11/09 12:34:24;;;;;;;30.48;20.13;;;14.90;94.80;;;;;;5094775;28;20039;-67
2022/11/09 12:37:10;;;;;;;36.00;25.10;;;14.90;94.80;;;;;;5094866;28;20042;-67
2022/11/09 12:39:42;;;;;;;34.58;19.85;;;15.00;94.80;;;;;;5094273;28;20036;-67
2022/11/09 12:42:19;;;;;;;31.77;21.83;;;15.00;94.80;;;;;;5094880;28;20476;-65
2022/11/09 12:45:01;;;;;;;30.98;20.85;;;14.90;94.90;;;;;;5093963;28;20055;-67
2022/11/09 12:47:34;;;;;;;30.15;21.13;;;15.00;94.80;;;;;;5093974;28;20109;-71
2022/11/09 12:49:59;;;;;;;29.42;20.17;;;15.00;94.70;;;;;;5093932;28;20549;-81
2022/11/09 12:52:28;;;;;;;27.95;19.45;;;15.00;94.70;;;;;;5093807;28;20036;-67
2022/11/09 12:54:54;;;;;;;31.00;21.35;;;15.00;94.70;;;;;;5094088;28;20058;-67
2022/11/09 12:57:23;;;;;;;32.75;20.33;;;15.00;94.70;;;;;;5094051;28;20044;-66
2022/11/09 12:59:50;;;;;;;25.75;19.05;;;15.00;94.70;;;;;;5094447;28;20033;-67
2022/11/09 13:02:32;;;;;;;32.35;20.88;;;15.00;94.70;;;;;;5092513;28;20032;-67
2022/11/09 13:05:03;;;;;;;;;;;15.00;94.80;;;;;;5093867;28;20024;-67
2022/11/09 13:07:48;;;;;;;28.42;19.10;;;15.00;94.70;;;;;;5111769;28;20283;-67
2022/11/09 13:10:33;;;;;;;32.83;19.45;;;15.00;94.70;;;;;;5113035;28;20114;-73
2022/11/09 13:13:02;;;;;;;30.23;19.73;;;15.00;94.80;;;;;;5112213;28;20399;-67
2022/11/09 13:15:31;;;;;;;27.35;19.40;;;15.00;94.80;;;;;;5110987;28;20031;-67
2022/11/09 13:18:01;;;;;;;27.23;18.65;;;15.00;94.80;;;;;;5109332;28;20388;-67
2022/11/09 13:20:33;;;;;;;31.00;18.92;;;15.00;95.00;;;;;;5109910;28;20135;-67
2022/11/09 13:23:08;;;;;;;28.52;20.17;;;15.00;95.00;;;;;;5111274;28;20387;-67
2022/11/09 13:25:47;;;;;;;29.27;19.13;;;15.00;95.00;;;;;;5169568;22;22854;-70
2022/11/09 13:31:54;;;;;;;26.70;18.30;;;15.00;95.00;;;;;;5131262;22;20074;-67
2022/11/09 13:34:41;;;;;;;33.65;19.45;;;15.00;95.10;;;;;;5133311;27;20031;-68
2022/11/09 13:37:55;;;;;;;29.98;20.20;;;15.00;95.10;;;;;;5134284;27;20435;-69
2022/11/09 13:40:29;;;;;;;;;;;15.00;95.10;;;;;;5121245;27;20042;-68
2022/11/09 13:43:01;;;;;;;31.83;21.63;;;15.10;95.00;;;;;;5134387;27;19903;-68
2022/11/09 13:45:35;;;;;;;;;;;15.10;95.10;;;;;;5134456;27;20465;-68
2022/11/09 13:48:01;;;;;;;;;;;15.00;95.00;;;;;;5134720;27;19946;-69
2022/11/09 13:50:29;;;;;;;32.80;20.98;;;15.00;94.90;;;;;;5134513;27;20358;-68
2022/11/09 13:52:57;;;;;;;27.38;20.20;;;15.00;95.00;;;;;;5134519;27;20509;-68
2022/11/09 13:55:38;;;;;;;30.40;21.17;;;15.00;95.10;;;;;;5134274;27;20053;-68
2022/11/09 13:58:31;;;;;;;33.13;20.90;;;15.00;95.40;;;;;;5134031;27;20114;-68
2022/11/09 14:00:57;;;;;;;32.40;20.83;;;15.00;95.80;;;;;;5133964;27;20038;-68
2022/11/09 14:03:28;;;;;;;27.25;23.02;;;15.00;95.60;;;;;;5134192;27;20031;-68
2022/11/09 14:06:00;;;;;;;34.90;23.27;;;15.00;95.60;;;;;;5134078;27;20039;-68
2022/11/09 14:08:32;;;;;;;33.08;22.85;;;15.00;95.60;;;;;;5133563;27;20092;-68
2022/11/09 14:11:07;;;;;;;37.72;22.98;;;15.10;95.60;;;;;;5134011;27;20103;-69
2022/11/09 14:13:45;;;;;;;30.63;22.10;;;15.10;95.60;;;;;;5134198;27;20367;-68
2022/11/09 14:16:26;;;;;;;33.58;25.00;;;15.10;95.50;;;;;;5133792;27;20023;-68
2022/11/09 14:19:02;;;;;;;39.17;23.98;;;15.10;95.50;;;;;;5114373;27;20049;-69
2022/11/09 14:21:54;;;;;;;34.03;23.35;;;15.10;95.50;;;;;;5133634;27;20031;-69
2022/11/09 14:24:31;;;;;;;35.25;23.23;;;15.10;95.50;;;;;;5129783;27;20537;-68
2022/11/09 14:27:09;;;;;;;38.70;24.35;;;15.10;95.50;;;;;;5134014;28;20027;-68
2022/11/09 14:29:56;;;;;;;35.78;25.23;;;15.10;95.50;;;;;;5133365;28;20033;-68
2022/11/09 14:32:32;;;;;;;35.65;22.63;;;15.10;95.80;;;;;;5133576;28;20039;-67
2022/11/09 14:35:18;;;;;;;34.83;21.83;;;15.10;95.50;;;;;;5133557;27;20113;-68
2022/11/09 14:37:44;;;;;;;37.50;23.63;;;15.10;95.50;;;;;;5137534;27;20058;-68
2022/11/09 14:40:18;;;;;;;34.42;21.67;;;15.10;95.50;;;;;;5137978;27;20070;-68
2022/11/09 14:43:02;;;;;;;40.10;23.65;;;15.10;95.50;;;;;;5137735;27;20398;-67
2022/11/09 14:45:28;;;;;;;36.35;24.27;;;15.10;95.50;;;;;;5137467;27;20061;-68
2022/11/09 14:47:57;;;;;;;32.97;25.25;;;15.10;95.40;;;;;;5135633;27;20059;-68
2022/11/09 14:50:24;;;;;;;30.58;22.65;;;15.10;95.40;;;;;;5137338;27;20110;-68
2022/11/09 14:52:52;;;;;;;38.08;23.45;;;15.10;95.50;;;;;;5136410;27;20027;-68
2022/11/09 14:55:20;;;;;;;40.08;27.52;;;15.10;95.40;;;;;;5134864;27;20036;-69
2022/11/09 14:57:47;;;;;;;35.45;24.02;;;15.10;95.50;;;;;;5134515;27;20041;-69
2022/11/09 15:00:26;;;;;;;33.67;24.52;;;15.10;95.50;;;;;;5136882;27;20072;-70
2022/11/09 15:02:52;;;;;;;38.13;22.60;;;15.10;95.60;;;;;;5137536;27;20051;-69
2022/11/09 15:05:39;;;;;;;39.40;22.60;;;15.10;95.70;;;;;;5137340;27;20059;-68
2022/11/09 15:08:20;;;;;;;37.85;21.83;;;15.10;95.70;;;;;;5135662;27;20047;-70
2022/11/09 15:10:53;;;;;;;35.17;21.67;;;15.10;95.70;;;;;;5137059;27;20027;-71
2022/11/09 15:13:36;;;;;;;45.53;23.45;;;15.00;95.80;;;;;;5137780;27;20084;-70
2022/11/09 15:16:02;;;;;;;38.78;21.88;;;15.10;95.90;;;;;;5137599;27;20417;-69
2022/11/09 15:18:30;;;;;;;32.25;20.55;;;15.10;96.00;;;;;;5137764;27;20031;-69
2022/11/09 15:21:16;;;;;;;37.92;21.88;;;15.00;96.00;;;;;;5137212;27;20562;-69
2022/11/09 15:23:45;;;;;;;34.70;21.23;;;15.00;96.00;;;;;;5137661;27;20046;-69
2022/11/09 15:26:35;;;;;;;33.50;22.65;;;15.00;96.10;;;;;;5137298;27;20031;-69
2022/11/09 15:29:01;;;;;;;38.33;23.02;;;15.00;96.10;;;;;;5135489;27;20385;-69
2022/11/09 15:31:27;;;;;;;33.70;21.17;;;15.00;96.10;;;;;;5126754;27;20397;-69
2022/11/09 15:33:55;;;;;;;31.90;21.35;;;15.00;96.20;;;;;;5125002;27;20098;-69
2022/11/09 15:36:24;;;;;;;26.65;19.88;;;15.00;96.20;;;;;;5133792;27;20031;-68
2022/11/09 15:39:08;;;;;;;27.90;21.35;;;15.00;96.10;;;;;;5136940;27;20043;-69
2022/11/09 15:41:35;;;;;;;31.75;20.98;;;15.00;96.10;;;;;;5136996;27;20506;-69
2022/11/09 15:44:00;;;;;;;33.83;24.10;;;15.00;96.00;;;;;;5137075;27;20035;-69
2022/11/09 15:46:37;;;;;;;36.20;21.85;;;15.00;96.00;;;;;;5136184;27;20054;-69
2022/11/09 15:49:14;;;;;;;32.88;24.27;;;15.00;96.00;;;;;;5136770;27;20130;-69
2022/11/09 15:51:40;;;;;;;32.20;23.35;;;15.00;96.20;;;;;;5136885;27;20027;-68
2022/11/09 15:54:06;;;;;;;35.70;23.13;;;15.00;95.90;;;;;;5135478;27;20099;-69
2022/11/09 15:56:31;;;;;;;27.75;21.15;;;15.00;95.90;;;;;;5136285;27;20474;-69
2022/11/09 15:58:57;;;;;;;35.50;23.27;;;15.00;95.80;;;;;;5136763;27;20427;-69
2022/11/09 16:01:23;;;;;;;33.53;23.40;;;14.90;95.90;;;;;;5136693;27;20042;-69
2022/11/09 16:03:48;;;;;;;36.45;22.45;;;15.00;96.10;;;;;;5136708;27;20027;-68
2022/11/09 16:06:21;;;;;;;33.10;22.60;;;15.00;96.10;;;;;;5136685;27;20031;-68
2022/11/09 16:08:48;;;;;;;37.05;25.13;;;15.00;96.00;;;;;;5136568;27;20386;-68
2022/11/09 16:11:13;;;;;;;35.92;24.25;;;15.00;96.00;;;;;;5118107;27;20035;-68
2022/11/09 16:13:39;;;;;;;38.00;25.70;;;14.90;95.90;;;;;;5136225;27;20054;-69
2022/11/09 16:16:07;;;;;;;39.63;22.20;;;15.00;95.90;;;;;;5136496;27;20031;-69
2022/11/09 16:18:34;;;;;;;33.88;23.58;;;15.00;95.90;;;;;;5136537;27;20110;-69
2022/11/09 16:21:10;;;;;;;36.28;25.23;;;15.00;95.90;;;;;;5136344;27;20375;-68
2022/11/09 16:23:36;;;;;;;40.42;28.33;;;15.00;95.80;;;;;;5136378;27;20080;-68
2022/11/09 16:26:11;;;;;;;38.72;27.52;;;15.00;95.80;;;;;;5136119;27;20063;-69
2022/11/09 16:28:39;;;;;;;43.42;31.40;;;15.00;95.80;;;;;;5136266;27;20039;-68
2022/11/09 16:31:05;;;;;;;38.80;30.13;;;14.90;95.80;;;;;;5135784;27;20418;-67
2022/11/09 16:33:31;;;;;;;38.25;30.75;;;14.90;95.80;;;;;;5135849;27;20435;-69
2022/11/09 16:36:01;;;;;;;40.67;30.02;;;14.90;95.80;;;;;;5126525;27;20110;-70
2022/11/09 16:38:34;;;;;;;47.67;30.42;;;14.90;95.80;;;;;;5125462;27;20039;-69
2022/11/09 16:41:02;;;;;;;42.00;26.13;;;14.90;95.80;;;;;;5135382;27;20039;-69
2022/11/09 16:43:30;;;;;;;40.42;26.85;;;14.90;95.80;;;;;;5135424;27;20031;-68
2022/11/09 16:45:56;;;;;;;38.33;25.58;;;14.90;95.80;;;;;;5135518;27;20091;-67
2022/11/09 16:48:22;;;;;;;32.65;25.42;;;14.90;95.80;;;;;;5116710;27;20089;-69
2022/11/09 16:50:48;;;;;;;35.42;26.25;;;14.90;95.80;;;;;;5135270;27;20478;-68
2022/11/09 16:53:14;;;;;;;38.63;26.02;;;14.90;95.80;;;;;;5135223;27;20074;-68
2022/11/09 16:55:40;;;;;;;44.22;25.42;;;14.90;95.80;;;;;;5116941;27;20027;-70
2022/11/09 16:58:05;;;;;;;49.35;31.58;;;14.90;95.80;;;;;;5134812;27;20071;-69
2022/11/09 17:00:31;;;;;;;44.58;28.35;;;14.90;95.80;;;;;;5122443;27;20108;-67
2022/11/09 17:03:01;;;;;;;40.83;26.80;;;14.90;95.80;;;;;;5114707;28;20172;-67
2022/11/09 17:05:27;;;;;;;46.15;29.98;;;14.90;95.80;;;;;;5113670;28;20032;-67
2022/11/09 17:07:52;;;;;;;39.00;26.38;;;14.90;95.80;;;;;;5114080;28;20066;-68
2022/11/09 17:10:19;;;;;;;43.88;25.88;;;14.90;95.80;;;;;;5114522;28;20034;-67
2022/11/09 17:12:45;;;;;;;36.50;24.38;;;14.90;95.80;;;;;;5114504;28;20035;-67
2022/11/09 17:15:11;;;;;;;35.75;24.52;;;14.90;95.90;;;;;;5114467;28;20482;-68
2022/11/09 17:17:36;;;;;;;31.40;22.38;;;14.90;95.90;;;;;;5114264;28;20486;-67
2022/11/09 17:20:05;;;;;;;38.47;21.73;;;14.90;95.90;;;;;;5114331;28;20063;-67
2022/11/09 17:22:32;;;;;;;33.97;20.98;;;14.90;95.90;;;;;;5112132;28;20028;-68
2022/11/09 17:24:57;;;;;;;32.75;21.55;;;14.90;95.90;;;;;;5111673;28;20558;-69
2022/11/09 17:27:23;;;;;;;37.00;22.58;;;14.90;95.80;;;;;;5111796;28;20043;-68
2022/11/09 17:29:49;;;;;;;32.47;21.80;;;14.90;95.90;;;;;;5113804;28;20039;-69
2022/11/09 17:32:15;;;;;;;35.47;22.60;;;14.90;95.90;;;;;;5114277;28;20040;-69
2022/11/09 17:34:41;;;;;;;35.25;23.73;;;14.90;95.90;;;;;;5114165;28;20418;-69
2022/11/09 17:37:06;;;;;;;30.88;21.80;;;14.90;96.00;;;;;;5114263;28;20383;-68
2022/11/09 17:39:32;;;;;;;36.03;24.30;;;14.90;96.00;;;;;;5114006;28;20429;-68
2022/11/09 17:41:58;;;;;;;32.17;23.33;;;14.90;96.00;;;;;;5114517;28;20429;-67
2022/11/09 17:44:24;;;;;;;31.33;23.02;;;14.90;96.00;;;;;;5113754;28;20028;-67
2022/11/09 17:46:49;;;;;;;31.98;22.40;;;14.90;96.00;;;;;;5114073;28;20031;-69
2022/11/09 17:49:15;;;;;;;38.85;22.38;;;14.90;96.00;;;;;;5113963;28;20040;-69
2022/11/09 17:51:41;;;;;;;31.80;23.88;;;14.90;95.90;;;;;;5113735;28;20527;-69
2022/11/09 17:54:07;;;;;;;32.47;23.60;;;14.90;95.90;;;;;;5113948;28;20035;-69
2022/11/09 17:56:33;;;;;;;30.15;22.83;;;14.90;95.90;;;;;;5113642;28;20032;-67
2022/11/09 17:58:59;;;;;;;35.58;25.33;;;14.90;95.90;;;;;;5113816;28;20098;-69
2022/11/09 18:01:24;;;;;;;32.92;23.73;;;14.90;95.90;;;;;;5113852;28;20114;-68
2022/11/09 18:03:50;;;;;;;30.40;22.55;;;14.90;95.90;;;;;;5113568;28;20111;-68
2022/11/09 18:06:21;;;;;;;42.70;29.13;;;14.90;95.90;;;;;;5111826;28;20032;-68
2022/11/09 18:08:48;;;;;;;39.63;25.88;;;14.90;95.90;;;;;;5110572;28;20051;-68
2022/11/09 18:11:14;;;;;;;35.80;25.48;;;14.90;95.90;;;;;;5111891;28;20031;-67
2022/11/09 18:13:41;;;;;;;39.05;25.02;;;14.90;95.90;;;;;;5113795;28;20035;-69
2022/11/09 18:16:09;;;;;;;36.38;24.48;;;14.90;95.80;;;;;;5113529;28;20081;-68
2022/11/09 18:18:35;;;;;;;38.08;26.50;;;14.90;95.80;;;;;;5095619;28;20028;-69
2022/11/09 18:21:16;;;;;;;37.35;26.20;;;14.90;95.70;;;;;;5113610;28;20095;-67
2022/11/09 18:23:42;;;;;;;41.05;27.35;;;14.90;95.80;;;;;;5113624;28;20098;-67
2022/11/09 18:26:08;;;;;;;40.35;27.27;;;14.90;95.70;;;;;;5113780;28;20499;-68
2022/11/09 18:28:35;;;;;;;35.30;25.15;;;14.90;95.70;;;;;;5113760;28;20047;-69
2022/11/09 18:31:04;;;;;;;38.45;26.67;;;14.90;95.70;;;;;;5113365;28;20511;-68
2022/11/09 18:33:30;;;;;;;38.25;27.88;;;14.90;95.70;;;;;;5113563;28;20034;-68
2022/11/09 18:36:10;;;;;;;41.08;28.30;;;14.90;95.80;;;;;;5113620;28;20376;-68
2022/11/09 18:38:37;;;;;;;37.10;25.20;;;14.90;95.80;;;;;;5113581;28;20039;-68
2022/11/09 18:41:05;;;;;;;41.15;26.50;;;14.90;95.80;;;;;;5113571;28;20185;-69
2022/11/09 18:43:31;;;;;;;39.10;24.30;;;14.90;95.80;;;;;;5113782;28;20071;-69
2022/11/09 18:46:02;;;;;;;38.00;24.70;;;14.90;95.90;;;;;;5113298;28;20063;-67
2022/11/09 18:48:28;;;;;;;36.72;26.48;;;14.90;95.90;;;;;;5113190;28;20075;-68
2022/11/09 18:50:55;;;;;;;39.85;29.13;;;14.80;95.90;;;;;;5113256;28;20031;-69
2022/11/09 18:53:22;;;;;;;42.55;28.52;;;14.90;96.00;;;;;;5113494;28;20051;-68
2022/11/09 18:55:48;;;;;;;50.20;35.97;;;14.90;96.00;;;;;;5113555;28;20031;-67
2022/11/09 18:58:15;;;;;;;60.35;41.75;;;14.80;95.90;;;;;;5113272;28;20057;-69
2022/11/09 19:00:42;;;;;;;62.85;43.25;;;14.80;95.90;;;;;;5113228;28;20040;-68
2022/11/09 19:03:15;;;;;;;69.43;46.08;;;14.80;95.90;;;;;;5113269;28;20059;-68
2022/11/09 19:05:46;;;;;;;46.00;33.03;;;14.80;95.90;;;;;;5113082;28;20028;-69
2022/11/09 19:08:12;;;;;;;41.65;29.67;;;14.80;95.90;;;;;;5113035;28;20882;-69
2022/11/09 19:10:38;;;;;;;37.03;29.50;;;14.80;96.10;;;;;;5113068;28;20034;-69
2022/11/09 19:13:05;;;;;;;36.53;27.40;;;14.80;96.10;;;;;;5113205;28;20063;-68
2022/11/09 19:15:37;;;;;;;41.03;31.40;;;14.80;96.10;;;;;;5112925;28;20073;-68
2022/11/09 19:18:04;;;;;;;39.58;30.23;;;14.80;96.20;;;;;;5113481;28;20118;-67
2022/11/09 19:20:31;;;;;;;37.53;28.92;;;14.80;96.20;;;;;;5113315;28;20473;-67
2022/11/09 19:22:57;;;;;;;39.05;29.60;;;14.80;96.20;;;;;;5116717;28;20063;-68
2022/11/09 19:25:22;;;;;;;43.10;31.48;;;14.80;96.20;;;;;;5116883;28;20380;-67
2022/11/09 19:27:48;;;;;;;45.00;34.72;;;14.80;96.30;;;;;;5116754;28;20035;-67